sensor_id;sensor_type;location;lat;lon;timestamp;pressure;altitude;pressure_sealevel;temperature;humidity
40117;BME280;25829;50.228;18.936;2023-12-29T00:02:36;98501.34;;;6.19;70.13
40117;BME280;25829;50.228;18.936;2023-12-29T00:05:37;98503.44;;;6.23;70.15
40117;BME280;25829;50.228;18.936;2023-12-29T00:08:38;98504.53;;;6.29;69.88
40117;BME280;25829;50.228;18.936;2023-12-29T00:11:38;98502.34;;;6.32;69.15
40117;BME280;25829;50.228;18.936;2023-12-29T00:14:40;98502.19;;;6.34;69.39
40117;BME280;25829;50.228;18.936;2023-12-29T00:17:41;98491.53;;;6.36;69.19
40117;BME280;25829;50.228;18.936;2023-12-29T00:20:41;98497.22;;;6.39;69.27
40117;BME280;25829;50.228;18.936;2023-12-29T00:23:42;98497.22;;;6.39;68.82
40117;BME280;25829;50.228;18.936;2023-12-29T00:26:43;98492.44;;;6.43;69.15
40117;BME280;25829;50.228;18.936;2023-12-29T00:29:43;98486.03;;;6.45;68.55
40117;BME280;25829;50.228;18.936;2023-12-29T00:32:44;98478.97;;;6.46;68.42
40117;BME280;25829;50.228;18.936;2023-12-29T00:35:46;98479.16;;;6.44;68.13
40117;BME280;25829;50.228;18.936;2023-12-29T00:38:47;98472.28;;;6.43;68.37
40117;BME280;25829;50.228;18.936;2023-12-29T00:41:48;98469.66;;;6.43;68.13
40117;BME280;25829;50.228;18.936;2023-12-29T00:44:48;98479.97;;;6.45;68.23
40117;BME280;25829;50.228;18.936;2023-12-29T00:47:49;98493.53;;;6.48;68.68
40117;BME280;25829;50.228;18.936;2023-12-29T00:50:52;98487.28;;;6.49;68.19
40117;BME280;25829;50.228;18.936;2023-12-29T00:53:52;98472.13;;;6.45;68.38
40117;BME280;25829;50.228;18.936;2023-12-29T00:56:53;98474.53;;;6.46;68.25
40117;BME280;25829;50.228;18.936;2023-12-29T00:59:55;98476.00;;;6.49;68.03
40117;BME280;25829;50.228;18.936;2023-12-29T01:02:56;98478.41;;;6.50;68.33
40117;BME280;25829;50.228;18.936;2023-12-29T01:05:57;98476.44;;;6.52;68.44
40117;BME280;25829;50.228;18.936;2023-12-29T01:15:45;98460.28;;;6.49;68.29
40117;BME280;25829;50.228;18.936;2023-12-29T01:18:46;98461.78;;;6.43;68.12
40117;BME280;25829;50.228;18.936;2023-12-29T01:21:46;98454.47;;;6.39;67.98
40117;BME280;25829;50.228;18.936;2023-12-29T01:24:47;98452.66;;;6.39;68.25
40117;BME280;25829;50.228;18.936;2023-12-29T01:27:48;98454.22;;;6.34;68.17
40117;BME280;25829;50.228;18.936;2023-12-29T01:30:49;98453.69;;;6.23;68.62
40117;BME280;25829;50.228;18.936;2023-12-29T01:33:49;98460.63;;;6.16;68.80
40117;BME280;25829;50.228;18.936;2023-12-29T01:36:51;98440.53;;;6.08;68.68
40117;BME280;25829;50.228;18.936;2023-12-29T01:39:51;98434.59;;;6.00;69.45
40117;BME280;25829;50.228;18.936;2023-12-29T01:42:52;98426.91;;;5.98;69.31
40117;BME280;25829;50.228;18.936;2023-12-29T01:45:53;98441.00;;;5.97;69.22
40117;BME280;25829;50.228;18.936;2023-12-29T01:48:54;98441.34;;;5.94;69.44
40117;BME280;25829;50.228;18.936;2023-12-29T01:51:56;98430.25;;;5.92;69.54
40117;BME280;25829;50.228;18.936;2023-12-29T01:54:58;98422.41;;;5.92;69.64
40117;BME280;25829;50.228;18.936;2023-12-29T01:57:59;98415.88;;;5.88;69.81
40117;BME280;25829;50.228;18.936;2023-12-29T02:01:01;98411.94;;;5.84;69.69
40117;BME280;25829;50.228;18.936;2023-12-29T02:04:03;98414.75;;;5.82;69.55
40117;BME280;25829;50.228;18.936;2023-12-29T02:07:03;98411.34;;;5.82;69.64
40117;BME280;25829;50.228;18.936;2023-12-29T02:10:05;98418.53;;;5.80;69.32
40117;BME280;25829;50.228;18.936;2023-12-29T02:13:06;98408.06;;;5.80;69.26
40117;BME280;25829;50.228;18.936;2023-12-29T02:16:10;98407.44;;;5.78;69.45
40117;BME280;25829;50.228;18.936;2023-12-29T02:22:35;98411.50;;;5.80;68.91
40117;BME280;25829;50.228;18.936;2023-12-29T02:25:36;98403.03;;;5.78;69.09
40117;BME280;25829;50.228;18.936;2023-12-29T02:28:41;98398.75;;;5.77;68.71
40117;BME280;25829;50.228;18.936;2023-12-29T02:31:45;98407.25;;;5.79;68.15
40117;BME280;25829;50.228;18.936;2023-12-29T02:34:50;98406.91;;;5.82;67.92
40117;BME280;25829;50.228;18.936;2023-12-29T02:37:53;98390.03;;;5.85;67.12
40117;BME280;25829;50.228;18.936;2023-12-29T02:40:56;98388.03;;;5.87;67.13
40117;BME280;25829;50.228;18.936;2023-12-29T02:43:57;98383.47;;;5.89;66.28
40117;BME280;25829;50.228;18.936;2023-12-29T02:46:59;98374.63;;;5.90;66.74
40117;BME280;25829;50.228;18.936;2023-12-29T02:50:00;98374.25;;;5.93;66.29
40117;BME280;25829;50.228;18.936;2023-12-29T02:53:01;98374.25;;;5.93;66.49
40117;BME280;25829;50.228;18.936;2023-12-29T02:56:02;98377.53;;;5.95;66.31
40117;BME280;25829;50.228;18.936;2023-12-29T02:59:03;98372.09;;;5.97;66.09
40117;BME280;25829;50.228;18.936;2023-12-29T03:02:03;98366.84;;;5.97;66.12
40117;BME280;25829;50.228;18.936;2023-12-29T03:05:05;98369.66;;;5.95;66.05
40117;BME280;25829;50.228;18.936;2023-12-29T03:08:06;98362.63;;;5.96;65.66
40117;BME280;25829;50.228;18.936;2023-12-29T03:11:07;98352.16;;;5.96;65.56
40117;BME280;25829;50.228;18.936;2023-12-29T03:14:07;98353.31;;;5.93;65.43
40117;BME280;25829;50.228;18.936;2023-12-29T03:17:08;98355.13;;;5.93;65.14
40117;BME280;25829;50.228;18.936;2023-12-29T03:20:09;98354.31;;;5.92;65.07
40117;BME280;25829;50.228;18.936;2023-12-29T03:23:10;98359.72;;;5.91;65.17
40117;BME280;25829;50.228;18.936;2023-12-29T03:26:11;98354.47;;;5.91;65.06
40117;BME280;25829;50.228;18.936;2023-12-29T03:29:12;98355.66;;;5.88;64.85
40117;BME280;25829;50.228;18.936;2023-12-29T03:32:12;98364.66;;;5.86;64.77
40117;BME280;25829;50.228;18.936;2023-12-29T03:35:13;98356.53;;;5.80;64.73
40117;BME280;25829;50.228;18.936;2023-12-29T03:38:14;98360.78;;;5.81;64.83
40117;BME280;25829;50.228;18.936;2023-12-29T03:41:15;98366.19;;;5.80;64.31
40117;BME280;25829;50.228;18.936;2023-12-29T03:44:15;98355.44;;;5.75;64.48
40117;BME280;25829;50.228;18.936;2023-12-29T03:47:17;98340.91;;;5.72;64.80
40117;BME280;25829;50.228;18.936;2023-12-29T03:50:19;98340.44;;;5.69;64.58
40117;BME280;25829;50.228;18.936;2023-12-29T03:53:19;98339.19;;;5.65;64.34
40117;BME280;25829;50.228;18.936;2023-12-29T03:56:20;98331.50;;;5.63;64.75
40117;BME280;25829;50.228;18.936;2023-12-29T03:59:21;98348.00;;;5.64;64.77
40117;BME280;25829;50.228;18.936;2023-12-29T04:02:22;98336.13;;;5.61;64.70
40117;BME280;25829;50.228;18.936;2023-12-29T04:05:22;98331.25;;;5.58;64.88
40117;BME280;25829;50.228;18.936;2023-12-29T04:08:23;98330.59;;;5.56;65.14
40117;BME280;25829;50.228;18.936;2023-12-29T04:11:24;98339.59;;;5.53;65.17
40117;BME280;25829;50.228;18.936;2023-12-29T04:14:24;98340.59;;;5.52;64.91
40117;BME280;25829;50.228;18.936;2023-12-29T04:17:25;98338.78;;;5.53;65.33
40117;BME280;25829;50.228;18.936;2023-12-29T04:20:26;98336.19;;;5.53;65.37
40117;BME280;25829;50.228;18.936;2023-12-29T04:23:27;98358.09;;;5.52;65.60
40117;BME280;25829;50.228;18.936;2023-12-29T04:26:28;98348.09;;;5.55;65.33
40117;BME280;25829;50.228;18.936;2023-12-29T04:29:28;98340.06;;;5.57;66.15
40117;BME280;25829;50.228;18.936;2023-12-29T04:32:29;98339.69;;;5.60;65.66
40117;BME280;25829;50.228;18.936;2023-12-29T04:35:30;98335.75;;;5.64;65.19
40117;BME280;25829;50.228;18.936;2023-12-29T04:38:31;98326.19;;;5.71;65.42
40117;BME280;25829;50.228;18.936;2023-12-29T04:41:32;98330.69;;;5.77;65.65
40117;BME280;25829;50.228;18.936;2023-12-29T04:44:32;98329.53;;;5.80;65.03
40117;BME280;25829;50.228;18.936;2023-12-29T04:47:33;98331.44;;;5.86;64.71
40117;BME280;25829;50.228;18.936;2023-12-29T04:50:34;98332.19;;;5.95;64.90
40117;BME280;25829;50.228;18.936;2023-12-29T04:53:34;98333.47;;;5.99;64.48
40117;BME280;25829;50.228;18.936;2023-12-29T04:56:35;98323.59;;;6.01;64.20
40117;BME280;25829;50.228;18.936;2023-12-29T04:59:36;98323.88;;;6.06;64.25
40117;BME280;25829;50.228;18.936;2023-12-29T05:02:38;98309.06;;;6.13;64.04
40117;BME280;25829;50.228;18.936;2023-12-29T05:05:39;98302.00;;;6.14;63.53
40117;BME280;25829;50.228;18.936;2023-12-29T05:08:39;98310.50;;;6.16;64.10
40117;BME280;25829;50.228;18.936;2023-12-29T05:11:40;98299.66;;;6.19;63.91
40117;BME280;25829;50.228;18.936;2023-12-29T05:14:41;98297.66;;;6.21;64.17
40117;BME280;25829;50.228;18.936;2023-12-29T05:17:41;98296.66;;;6.22;63.76
40117;BME280;25829;50.228;18.936;2023-12-29T05:20:42;98312.75;;;6.19;64.47
40117;BME280;25829;50.228;18.936;2023-12-29T05:23:47;98307.88;;;6.16;64.63
40117;BME280;25829;50.228;18.936;2023-12-29T05:26:48;98313.94;;;6.16;64.96
40117;BME280;25829;50.228;18.936;2023-12-29T05:29:49;98322.97;;;6.14;65.28
40117;BME280;25829;50.228;18.936;2023-12-29T05:32:49;98314.47;;;6.12;65.52
40117;BME280;25829;50.228;18.936;2023-12-29T05:35:51;98318.72;;;6.13;65.32
40117;BME280;25829;50.228;18.936;2023-12-29T05:38:52;98308.88;;;6.15;65.85
40117;BME280;25829;50.228;18.936;2023-12-29T05:41:53;98305.25;;;6.16;66.04
40117;BME280;25829;50.228;18.936;2023-12-29T05:44:53;98322.41;;;6.18;66.24
40117;BME280;25829;50.228;18.936;2023-12-29T05:47:54;98318.44;;;6.22;66.67
40117;BME280;25829;50.228;18.936;2023-12-29T05:50:55;98314.28;;;6.28;66.09
40117;BME280;25829;50.228;18.936;2023-12-29T05:53:56;98309.47;;;6.31;66.89
40117;BME280;25829;50.228;18.936;2023-12-29T05:56:56;98321.66;;;6.39;66.60
40117;BME280;25829;50.228;18.936;2023-12-29T05:59:57;98318.31;;;6.45;66.71
40117;BME280;25829;50.228;18.936;2023-12-29T06:02:58;98309.88;;;6.50;66.94
40117;BME280;25829;50.228;18.936;2023-12-29T06:05:59;98313.94;;;6.52;66.98
40117;BME280;25829;50.228;18.936;2023-12-29T06:09:00;98295.03;;;6.57;67.04
40117;BME280;25829;50.228;18.936;2023-12-29T06:12:01;98306.97;;;6.60;66.86
40117;BME280;25829;50.228;18.936;2023-12-29T06:15:02;98307.16;;;6.58;66.95
40117;BME280;25829;50.228;18.936;2023-12-29T06:18:03;98302.72;;;6.59;66.80
40117;BME280;25829;50.228;18.936;2023-12-29T06:21:04;98303.75;;;6.58;66.86
40117;BME280;25829;50.228;18.936;2023-12-29T06:24:05;98313.59;;;6.55;66.90
40117;BME280;25829;50.228;18.936;2023-12-29T06:27:08;98321.44;;;6.55;66.40
40117;BME280;25829;50.228;18.936;2023-12-29T06:30:09;98320.63;;;6.55;66.64
40117;BME280;25829;50.228;18.936;2023-12-29T06:33:13;98309.50;;;6.53;66.44
40117;BME280;25829;50.228;18.936;2023-12-29T06:36:14;98298.59;;;6.49;67.01
40117;BME280;25829;50.228;18.936;2023-12-29T06:39:15;98295.72;;;6.44;67.04
40117;BME280;25829;50.228;18.936;2023-12-29T06:42:16;98294.00;;;6.37;66.88
40117;BME280;25829;50.228;18.936;2023-12-29T06:45:16;98278.03;;;6.31;67.51
40117;BME280;25829;50.228;18.936;2023-12-29T06:48:17;98276.78;;;6.27;67.10
40117;BME280;25829;50.228;18.936;2023-12-29T06:51:18;98288.44;;;6.25;67.29
40117;BME280;25829;50.228;18.936;2023-12-29T06:54:19;98289.63;;;6.22;67.25
40117;BME280;25829;50.228;18.936;2023-12-29T06:57:20;98297.03;;;6.19;67.32
40117;BME280;25829;50.228;18.936;2023-12-29T07:00:21;98306.69;;;6.18;67.76
40117;BME280;25829;50.228;18.936;2023-12-29T07:03:21;98305.25;;;6.16;67.61
40117;BME280;25829;50.228;18.936;2023-12-29T07:06:22;98301.00;;;6.15;67.49
40117;BME280;25829;50.228;18.936;2023-12-29T07:09:23;98304.44;;;6.15;67.46
40117;BME280;25829;50.228;18.936;2023-12-29T07:12:24;98304.28;;;6.17;67.08
40117;BME280;25829;50.228;18.936;2023-12-29T07:15:25;98301.66;;;6.17;66.87
40117;BME280;25829;50.228;18.936;2023-12-29T07:18:25;98306.91;;;6.17;67.22
40117;BME280;25829;50.228;18.936;2023-12-29T07:21:26;98303.06;;;6.19;66.97
40117;BME280;25829;50.228;18.936;2023-12-29T07:24:27;98305.34;;;6.22;66.85
40117;BME280;25829;50.228;18.936;2023-12-29T07:27:28;98322.13;;;6.28;66.99
40117;BME280;25829;50.228;18.936;2023-12-29T07:30:37;98318.97;;;6.32;66.57
40117;BME280;25829;50.228;18.936;2023-12-29T07:33:44;98324.84;;;6.35;66.41
40117;BME280;25829;50.228;18.936;2023-12-29T07:36:45;98328.72;;;6.39;66.34
40117;BME280;25829;50.228;18.936;2023-12-29T07:39:45;98321.94;;;6.44;66.42
40117;BME280;25829;50.228;18.936;2023-12-29T07:42:48;98328.41;;;6.48;65.92
40117;BME280;25829;50.228;18.936;2023-12-29T07:45:50;98326.50;;;6.57;65.87
40117;BME280;25829;50.228;18.936;2023-12-29T07:48:51;98332.16;;;6.61;66.13
40117;BME280;25829;50.228;18.936;2023-12-29T07:51:52;98325.38;;;6.66;65.93
40117;BME280;25829;50.228;18.936;2023-12-29T07:54:53;98324.66;;;6.72;65.84
40117;BME280;25829;50.228;18.936;2023-12-29T07:57:54;98328.97;;;6.80;65.94
40117;BME280;25829;50.228;18.936;2023-12-29T08:00:55;98319.56;;;6.86;65.62
40117;BME280;25829;50.228;18.936;2023-12-29T08:03:55;98312.34;;;6.94;65.39
40117;BME280;25829;50.228;18.936;2023-12-29T08:06:57;98318.84;;;6.98;64.86
40117;BME280;25829;50.228;18.936;2023-12-29T08:09:58;98307.59;;;7.05;65.39
40117;BME280;25829;50.228;18.936;2023-12-29T08:12:59;98326.66;;;7.13;65.09
40117;BME280;25829;50.228;18.936;2023-12-29T08:16:01;98335.19;;;7.22;64.77
40117;BME280;25829;50.228;18.936;2023-12-29T08:19:04;98333.28;;;7.31;64.70
40117;BME280;25829;50.228;18.936;2023-12-29T08:22:04;98316.56;;;7.38;64.30
40117;BME280;25829;50.228;18.936;2023-12-29T08:25:05;98317.59;;;7.44;64.67
40117;BME280;25829;50.228;18.936;2023-12-29T08:28:06;98323.75;;;7.51;64.19
40117;BME280;25829;50.228;18.936;2023-12-29T08:31:07;98328.59;;;7.54;64.18
40117;BME280;25829;50.228;18.936;2023-12-29T08:34:08;98341.59;;;7.62;64.04
40117;BME280;25829;50.228;18.936;2023-12-29T08:37:09;98338.38;;;7.67;64.09
40117;BME280;25829;50.228;18.936;2023-12-29T08:40:10;98340.25;;;7.73;63.86
40117;BME280;25829;50.228;18.936;2023-12-29T08:43:11;98345.75;;;7.78;63.53
40117;BME280;25829;50.228;18.936;2023-12-29T08:46:12;98332.22;;;7.81;63.20
40117;BME280;25829;50.228;18.936;2023-12-29T08:49:13;98334.69;;;7.83;63.18
40117;BME280;25829;50.228;18.936;2023-12-29T08:52:13;98340.56;;;7.91;63.55
40117;BME280;25829;50.228;18.936;2023-12-29T08:55:14;98329.50;;;7.96;63.05
40117;BME280;25829;50.228;18.936;2023-12-29T08:58:15;98328.34;;;8.05;63.34
40117;BME280;25829;50.228;18.936;2023-12-29T09:01:16;98326.53;;;8.12;63.25
40117;BME280;25829;50.228;18.936;2023-12-29T09:04:17;98330.63;;;8.21;62.90
40117;BME280;25829;50.228;18.936;2023-12-29T09:07:17;98323.78;;;8.27;62.18
40117;BME280;25829;50.228;18.936;2023-12-29T09:10:20;98323.38;;;8.30;62.57
40117;BME280;25829;50.228;18.936;2023-12-29T09:13:21;98315.13;;;8.40;62.76
40117;BME280;25829;50.228;18.936;2023-12-29T09:16:25;98323.69;;;8.49;61.94
40117;BME280;25829;50.228;18.936;2023-12-29T09:19:26;98307.09;;;8.55;62.00
40117;BME280;25829;50.228;18.936;2023-12-29T09:22:27;98324.31;;;8.64;61.79
40117;BME280;25829;50.228;18.936;2023-12-29T09:25:28;98315.44;;;8.72;61.59
40117;BME280;25829;50.228;18.936;2023-12-29T09:28:28;98309.78;;;8.81;61.61
40117;BME280;25829;50.228;18.936;2023-12-29T09:31:29;98306.97;;;8.89;61.52
40117;BME280;25829;50.228;18.936;2023-12-29T09:34:30;98291.78;;;8.91;60.65
40117;BME280;25829;50.228;18.936;2023-12-29T09:37:31;98291.81;;;8.98;61.05
40117;BME280;25829;50.228;18.936;2023-12-29T09:40:32;98294.44;;;8.98;60.81
40117;BME280;25829;50.228;18.936;2023-12-29T09:43:33;98288.38;;;9.04;61.10
40117;BME280;25829;50.228;18.936;2023-12-29T09:46:35;98287.97;;;9.07;60.60
40117;BME280;25829;50.228;18.936;2023-12-29T09:49:40;98285.34;;;9.07;61.03
40117;BME280;25829;50.228;18.936;2023-12-29T09:52:44;98288.56;;;9.09;60.73
40117;BME280;25829;50.228;18.936;2023-12-29T09:55:49;98278.03;;;9.09;61.05
40117;BME280;25829;50.228;18.936;2023-12-29T09:58:51;98270.16;;;9.16;60.91
40117;BME280;25829;50.228;18.936;2023-12-29T10:01:53;98270.16;;;9.29;60.84
40117;BME280;25829;50.228;18.936;2023-12-29T10:04:55;98271.19;;;9.42;60.16
40117;BME280;25829;50.228;18.936;2023-12-29T10:07:58;98269.94;;;9.57;59.59
40117;BME280;25829;50.228;18.936;2023-12-29T10:11:08;98275.56;;;9.81;59.65
40117;BME280;25829;50.228;18.936;2023-12-29T10:14:22;98282.59;;;10.00;58.81
40117;BME280;25829;50.228;18.936;2023-12-29T10:21:01;98276.03;;;10.16;58.43
40117;BME280;25829;50.228;18.936;2023-12-29T10:24:19;98272.59;;;10.22;57.60
40117;BME280;25829;50.228;18.936;2023-12-29T10:27:21;98264.69;;;10.16;58.18
40117;BME280;25829;50.228;18.936;2023-12-29T10:30:23;98254.97;;;10.09;58.50
40117;BME280;25829;50.228;18.936;2023-12-29T10:33:24;98265.97;;;10.00;58.20
40117;BME280;25829;50.228;18.936;2023-12-29T10:36:25;98268.66;;;9.86;59.05
40117;BME280;25829;50.228;18.936;2023-12-29T10:39:26;98269.66;;;9.85;59.01
40117;BME280;25829;50.228;18.936;2023-12-29T10:42:28;98258.53;;;9.83;58.65
40117;BME280;25829;50.228;18.936;2023-12-29T10:45:29;98260.56;;;9.75;58.82
40117;BME280;25829;50.228;18.936;2023-12-29T10:48:30;98247.63;;;9.67;59.28
40117;BME280;25829;50.228;18.936;2023-12-29T10:51:31;98257.38;;;9.59;59.47
40117;BME280;25829;50.228;18.936;2023-12-29T10:54:31;98254.75;;;9.53;59.85
40117;BME280;25829;50.228;18.936;2023-12-29T10:57:32;98248.28;;;9.49;59.58
40117;BME280;25829;50.228;18.936;2023-12-29T11:00:33;98242.41;;;9.47;59.75
40117;BME280;25829;50.228;18.936;2023-12-29T11:03:34;98228.22;;;9.48;60.02
40117;BME280;25829;50.228;18.936;2023-12-29T11:06:42;98231.88;;;9.47;59.97
40117;BME280;25829;50.228;18.936;2023-12-29T11:09:50;98236.75;;;9.43;59.63
40117;BME280;25829;50.228;18.936;2023-12-29T11:12:51;98247.28;;;9.36;60.12
40117;BME280;25829;50.228;18.936;2023-12-29T11:15:53;98237.53;;;9.30;60.13
40117;BME280;25829;50.228;18.936;2023-12-29T11:18:56;98242.00;;;9.30;60.18
40117;BME280;25829;50.228;18.936;2023-12-29T11:21:57;98236.94;;;9.28;60.02
40117;BME280;25829;50.228;18.936;2023-12-29T11:24:58;98234.72;;;9.32;60.38
40117;BME280;25829;50.228;18.936;2023-12-29T11:28:00;98236.34;;;9.39;60.58
40117;BME280;25829;50.228;18.936;2023-12-29T11:31:01;98228.03;;;9.43;60.08
40117;BME280;25829;50.228;18.936;2023-12-29T11:34:32;98227.00;;;9.50;59.97
40117;BME280;25829;50.228;18.936;2023-12-29T11:41:12;98242.41;;;9.53;60.06
40117;BME280;25829;50.228;18.936;2023-12-29T11:44:24;98238.75;;;9.54;59.91
40117;BME280;25829;50.228;18.936;2023-12-29T11:47:37;98232.50;;;9.49;59.23
40117;BME280;25829;50.228;18.936;2023-12-29T11:50:39;98237.38;;;9.45;59.86
40117;BME280;25829;50.228;18.936;2023-12-29T11:53:42;98234.34;;;9.42;59.68
40117;BME280;25829;50.228;18.936;2023-12-29T11:56:43;98220.75;;;9.38;60.03
40117;BME280;25829;50.228;18.936;2023-12-29T11:59:48;98226.84;;;9.38;59.92
40117;BME280;25829;50.228;18.936;2023-12-29T12:02:49;98231.09;;;9.39;60.04
40117;BME280;25829;50.228;18.936;2023-12-29T12:05:52;98236.97;;;9.42;60.10
40117;BME280;25829;50.228;18.936;2023-12-29T12:09:23;98228.84;;;9.43;59.43
40117;BME280;25829;50.228;18.936;2023-12-29T12:12:43;98227.66;;;9.39;59.39
40117;BME280;25829;50.228;18.936;2023-12-29T12:15:44;98232.50;;;9.35;60.07
40117;BME280;25829;50.228;18.936;2023-12-29T12:18:45;98239.16;;;9.38;60.04
40117;BME280;25829;50.228;18.936;2023-12-29T12:21:47;98238.97;;;9.39;60.17
40117;BME280;25829;50.228;18.936;2023-12-29T12:24:56;98235.72;;;9.37;59.90
40117;BME280;25829;50.228;18.936;2023-12-29T12:27:58;98227.25;;;9.35;59.75
40117;BME280;25829;50.228;18.936;2023-12-29T12:31:05;98228.84;;;9.36;60.06
40117;BME280;25829;50.228;18.936;2023-12-29T12:34:07;98234.94;;;9.37;59.96
40117;BME280;25829;50.228;18.936;2023-12-29T12:37:08;98227.25;;;9.35;59.54
40117;BME280;25829;50.228;18.936;2023-12-29T12:40:09;98226.81;;;9.32;59.87
40117;BME280;25829;50.228;18.936;2023-12-29T12:43:14;98223.16;;;9.33;59.67
40117;BME280;25829;50.228;18.936;2023-12-29T12:46:16;98224.38;;;9.30;59.69
40117;BME280;25829;50.228;18.936;2023-12-29T12:49:17;98223.97;;;9.27;59.56
40117;BME280;25829;50.228;18.936;2023-12-29T12:52:18;98216.69;;;9.22;59.69
40117;BME280;25829;50.228;18.936;2023-12-29T12:55:19;98222.16;;;9.21;59.61
40117;BME280;25829;50.228;18.936;2023-12-29T12:58:20;98218.31;;;9.16;59.39
40117;BME280;25829;50.228;18.936;2023-12-29T13:01:21;98209.84;;;9.14;59.72
40117;BME280;25829;50.228;18.936;2023-12-29T13:04:22;98210.25;;;9.11;59.57
40117;BME280;25829;50.228;18.936;2023-12-29T13:07:23;98215.69;;;9.10;60.03
40117;BME280;25829;50.228;18.936;2023-12-29T13:10:24;98224.19;;;9.12;59.79
40117;BME280;25829;50.228;18.936;2023-12-29T13:13:35;98230.88;;;9.14;59.91
40117;BME280;25829;50.228;18.936;2023-12-29T13:16:37;98220.16;;;9.16;59.68
40117;BME280;25829;50.228;18.936;2023-12-29T13:19:38;98219.97;;;9.18;60.10
40117;BME280;25829;50.228;18.936;2023-12-29T13:22:39;98223.41;;;9.11;59.28
40117;BME280;25829;50.228;18.936;2023-12-29T13:25:43;98220.38;;;9.08;59.58
40117;BME280;25829;50.228;18.936;2023-12-29T13:28:44;98220.16;;;9.03;59.65
40117;BME280;25829;50.228;18.936;2023-12-29T13:31:47;98214.31;;;9.01;59.82
40117;BME280;25829;50.228;18.936;2023-12-29T13:38:15;98209.84;;;8.95;59.49
40117;BME280;25829;50.228;18.936;2023-12-29T13:41:19;98221.16;;;8.88;59.93
40117;BME280;25829;50.228;18.936;2023-12-29T13:44:21;98222.38;;;8.86;59.96
40117;BME280;25829;50.228;18.936;2023-12-29T13:47:22;98231.28;;;8.85;60.03
40117;BME280;25829;50.228;18.936;2023-12-29T13:50:28;98231.09;;;8.86;59.88
40117;BME280;25829;50.228;18.936;2023-12-29T13:53:32;98229.69;;;8.84;59.69
40117;BME280;25829;50.228;18.936;2023-12-29T13:56:33;98221.56;;;8.79;59.97
40117;BME280;25829;50.228;18.936;2023-12-29T13:59:34;98219.16;;;8.77;60.11
40117;BME280;25829;50.228;18.936;2023-12-29T14:02:35;98216.72;;;8.76;60.01
40117;BME280;25829;50.228;18.936;2023-12-29T14:08:45;98222.78;;;8.63;60.01
40117;BME280;25829;50.228;18.936;2023-12-29T14:11:47;98229.06;;;8.62;60.12
40117;BME280;25829;50.228;18.936;2023-12-29T14:14:48;98227.22;;;8.62;60.34
40117;BME280;25829;50.228;18.936;2023-12-29T14:17:49;98223.34;;;8.58;60.34
40117;BME280;25829;50.228;18.936;2023-12-29T14:20:50;98237.53;;;8.57;60.65
40117;BME280;25829;50.228;18.936;2023-12-29T14:24:10;98240.38;;;8.56;60.54
40117;BME280;25829;50.228;18.936;2023-12-29T14:27:12;98238.75;;;8.48;60.70
40117;BME280;25829;50.228;18.936;2023-12-29T14:30:19;98237.31;;;8.45;60.87
40117;BME280;25829;50.228;18.936;2023-12-29T14:33:20;98240.50;;;8.41;60.93
40117;BME280;25829;50.228;18.936;2023-12-29T14:36:24;98242.31;;;8.34;60.93
40117;BME280;25829;50.228;18.936;2023-12-29T14:39:24;98246.34;;;8.30;61.14
40117;BME280;25829;50.228;18.936;2023-12-29T14:42:25;98259.47;;;8.23;61.28
40117;BME280;25829;50.228;18.936;2023-12-29T14:45:26;98250.59;;;8.17;61.41
40117;BME280;25829;50.228;18.936;2023-12-29T14:48:29;98251.16;;;8.13;61.35
40117;BME280;25829;50.228;18.936;2023-12-29T14:51:30;98252.94;;;8.06;61.79
40117;BME280;25829;50.228;18.936;2023-12-29T14:54:31;98246.06;;;8.05;61.89
40117;BME280;25829;50.228;18.936;2023-12-29T14:57:32;98252.91;;;7.99;61.80
40117;BME280;25829;50.228;18.936;2023-12-29T15:00:32;98248.25;;;7.94;61.87
40117;BME280;25829;50.228;18.936;2023-12-29T15:03:34;98251.91;;;7.93;62.07
40117;BME280;25829;50.228;18.936;2023-12-29T15:06:34;98242.59;;;7.91;61.98
40117;BME280;25829;50.228;18.936;2023-12-29T15:09:35;98249.66;;;7.90;62.24
40117;BME280;25829;50.228;18.936;2023-12-29T15:12:36;98242.78;;;7.89;62.39
40117;BME280;25829;50.228;18.936;2023-12-29T15:15:37;98246.41;;;7.88;61.95
40117;BME280;25829;50.228;18.936;2023-12-29T15:18:38;98247.22;;;7.89;62.23
40117;BME280;25829;50.228;18.936;2023-12-29T15:21:39;98236.28;;;7.85;62.17
40117;BME280;25829;50.228;18.936;2023-12-29T15:24:39;98243.56;;;7.83;62.25
40117;BME280;25829;50.228;18.936;2023-12-29T15:27:40;98234.25;;;7.81;62.26
40117;BME280;25829;50.228;18.936;2023-12-29T15:30:41;98228.38;;;7.79;62.43
40117;BME280;25829;50.228;18.936;2023-12-29T15:33:42;98243.69;;;7.75;62.69
40117;BME280;25829;50.228;18.936;2023-12-29T15:36:43;98235.81;;;7.75;62.72
40117;BME280;25829;50.228;18.936;2023-12-29T15:39:44;98250.97;;;7.73;62.68
40117;BME280;25829;50.228;18.936;2023-12-29T15:42:45;98230.56;;;7.68;62.76
40117;BME280;25829;50.228;18.936;2023-12-29T15:45:46;98233.97;;;7.69;62.99
40117;BME280;25829;50.228;18.936;2023-12-29T15:48:46;98239.22;;;7.69;62.73
40117;BME280;25829;50.228;18.936;2023-12-29T15:51:47;98241.06;;;7.68;63.02
40117;BME280;25829;50.228;18.936;2023-12-29T15:54:48;98235.16;;;7.66;62.99
40117;BME280;25829;50.228;18.936;2023-12-29T15:57:49;98220.44;;;7.65;62.96
40117;BME280;25829;50.228;18.936;2023-12-29T16:00:49;98230.13;;;7.65;62.87
40117;BME280;25829;50.228;18.936;2023-12-29T16:03:50;98231.69;;;7.59;63.19
40117;BME280;25829;50.228;18.936;2023-12-29T16:06:53;98230.25;;;7.57;63.36
40117;BME280;25829;50.228;18.936;2023-12-29T16:09:54;98225.81;;;7.57;63.37
40117;BME280;25829;50.228;18.936;2023-12-29T16:12:55;98232.50;;;7.60;63.31
40117;BME280;25829;50.228;18.936;2023-12-29T16:15:55;98230.09;;;7.58;63.57
40117;BME280;25829;50.228;18.936;2023-12-29T16:18:59;98224.00;;;7.58;63.73
40117;BME280;25829;50.228;18.936;2023-12-29T16:22:03;98229.25;;;7.58;63.50
40117;BME280;25829;50.228;18.936;2023-12-29T16:25:04;98219.38;;;7.60;63.52
40117;BME280;25829;50.228;18.936;2023-12-29T16:28:05;98217.56;;;7.60;63.66